sensor_id;sensor_type;location;lat;lon;timestamp;P1;durP1;ratioP1;P2;durP2;ratioP2
16824;SDS011;8529;48.108;-1.706;2023-08-06T00:01:16;9.80;;;3.03;;
16824;SDS011;8529;48.108;-1.706;2023-08-06T00:03:46;10.00;;;3.67;;
16824;SDS011;8529;48.108;-1.706;2023-08-06T00:06:14;5.00;;;2.10;;
16824;SDS011;8529;48.108;-1.706;2023-08-06T00:08:42;14.48;;;2.75;;
16824;SDS011;8529;48.108;-1.706;2023-08-06T00:11:09;6.75;;;2.22;;
16824;SDS011;8529;48.108;-1.706;2023-08-06T00:13:37;8.75;;;2.72;;
16824;SDS011;8529;48.108;-1.706;2023-08-06T00:16:08;8.82;;;2.20;;
16824;SDS011;8529;48.108;-1.706;2023-08-06T00:18:36;8.13;;;2.28;;
16824;SDS011;8529;48.108;-1.706;2023-08-06T00:21:03;12.75;;;2.67;;
16824;SDS011;8529;48.108;-1.706;2023-08-06T00:23:31;6.30;;;2.22;;
16824;SDS011;8529;48.108;-1.706;2023-08-06T00:25:59;5.95;;;2.33;;
16824;SDS011;8529;48.108;-1.706;2023-08-06T00:28:26;10.25;;;2.13;;
16824;SDS011;8529;48.108;-1.706;2023-08-06T00:30:53;8.70;;;2.28;;
16824;SDS011;8529;48.108;-1.706;2023-08-06T00:33:20;5.20;;;2.35;;
16824;SDS011;8529;48.108;-1.706;2023-08-06T00:35:47;7.72;;;2.13;;
16824;SDS011;8529;48.108;-1.706;2023-08-06T00:38:15;9.35;;;2.55;;
16824;SDS011;8529;48.108;-1.706;2023-08-06T00:40:43;7.88;;;2.55;;
16824;SDS011;8529;48.108;-1.706;2023-08-06T00:43:10;7.55;;;2.28;;
16824;SDS011;8529;48.108;-1.706;2023-08-06T00:45:37;9.15;;;2.85;;
16824;SDS011;8529;48.108;-1.706;2023-08-06T00:48:05;3.97;;;1.80;;
16824;SDS011;8529;48.108;-1.706;2023-08-06T00:50:32;8.32;;;2.03;;
16824;SDS011;8529;48.108;-1.706;2023-08-06T00:52:59;6.13;;;1.90;;
16824;SDS011;8529;48.108;-1.706;2023-08-06T00:55:27;10.52;;;2.20;;
16824;SDS011;8529;48.108;-1.706;2023-08-06T00:57:56;8.02;;;1.90;;
16824;SDS011;8529;48.108;-1.706;2023-08-06T01:00:24;7.70;;;2.08;;
16824;SDS011;8529;48.108;-1.706;2023-08-06T01:02:51;6.78;;;1.77;;
16824;SDS011;8529;48.108;-1.706;2023-08-06T01:05:18;7.88;;;2.00;;
16824;SDS011;8529;48.108;-1.706;2023-08-06T01:07:48;6.03;;;2.22;;
16824;SDS011;8529;48.108;-1.706;2023-08-06T01:10:23;6.45;;;2.28;;
16824;SDS011;8529;48.108;-1.706;2023-08-06T01:12:55;10.23;;;1.75;;
16824;SDS011;8529;48.108;-1.706;2023-08-06T01:15:32;9.13;;;2.17;;
16824;SDS011;8529;48.108;-1.706;2023-08-06T01:17:59;7.80;;;2.17;;
16824;SDS011;8529;48.108;-1.706;2023-08-06T01:20:29;3.80;;;1.55;;
16824;SDS011;8529;48.108;-1.706;2023-08-06T01:22:56;5.80;;;1.60;;
16824;SDS011;8529;48.108;-1.706;2023-08-06T01:25:24;6.03;;;2.00;;
16824;SDS011;8529;48.108;-1.706;2023-08-06T01:27:55;9.23;;;1.88;;
16824;SDS011;8529;48.108;-1.706;2023-08-06T01:30:25;5.30;;;1.80;;
16824;SDS011;8529;48.108;-1.706;2023-08-06T01:32:55;3.42;;;1.70;;
16824;SDS011;8529;48.108;-1.706;2023-08-06T01:35:24;4.80;;;1.63;;
16824;SDS011;8529;48.108;-1.706;2023-08-06T01:37:53;8.43;;;1.73;;
16824;SDS011;8529;48.108;-1.706;2023-08-06T01:40:21;6.97;;;2.13;;
16824;SDS011;8529;48.108;-1.706;2023-08-06T01:42:50;8.30;;;1.85;;
16824;SDS011;8529;48.108;-1.706;2023-08-06T01:45:17;9.35;;;1.70;;
16824;SDS011;8529;48.108;-1.706;2023-08-06T01:47:44;6.50;;;2.00;;
16824;SDS011;8529;48.108;-1.706;2023-08-06T01:50:11;6.35;;;1.60;;
16824;SDS011;8529;48.108;-1.706;2023-08-06T01:52:38;7.75;;;2.25;;
16824;SDS011;8529;48.108;-1.706;2023-08-06T01:55:07;6.72;;;1.60;;
16824;SDS011;8529;48.108;-1.706;2023-08-06T01:57:35;5.05;;;1.40;;
16824;SDS011;8529;48.108;-1.706;2023-08-06T02:00:02;4.60;;;1.70;;
16824;SDS011;8529;48.108;-1.706;2023-08-06T02:02:29;6.38;;;2.00;;
16824;SDS011;8529;48.108;-1.706;2023-08-06T02:04:56;5.47;;;1.73;;
16824;SDS011;8529;48.108;-1.706;2023-08-06T02:07:24;3.72;;;1.52;;
16824;SDS011;8529;48.108;-1.706;2023-08-06T02:09:51;7.25;;;2.13;;
16824;SDS011;8529;48.108;-1.706;2023-08-06T02:12:20;3.40;;;1.52;;
16824;SDS011;8529;48.108;-1.706;2023-08-06T02:14:47;6.50;;;1.70;;
16824;SDS011;8529;48.108;-1.706;2023-08-06T02:17:14;3.35;;;1.40;;
16824;SDS011;8529;48.108;-1.706;2023-08-06T02:19:41;8.85;;;1.75;;
16824;SDS011;8529;48.108;-1.706;2023-08-06T02:22:08;7.45;;;1.88;;
16824;SDS011;8529;48.108;-1.706;2023-08-06T02:24:35;10.57;;;2.28;;
16824;SDS011;8529;48.108;-1.706;2023-08-06T02:27:02;8.18;;;1.88;;
16824;SDS011;8529;48.108;-1.706;2023-08-06T02:29:30;5.60;;;1.90;;
16824;SDS011;8529;48.108;-1.706;2023-08-06T02:31:57;8.07;;;2.20;;
16824;SDS011;8529;48.108;-1.706;2023-08-06T02:34:26;6.00;;;1.90;;
16824;SDS011;8529;48.108;-1.706;2023-08-06T02:36:53;6.68;;;1.48;;
16824;SDS011;8529;48.108;-1.706;2023-08-06T02:39:20;7.70;;;2.40;;
16824;SDS011;8529;48.108;-1.706;2023-08-06T02:41:47;6.47;;;1.50;;
16824;SDS011;8529;48.108;-1.706;2023-08-06T02:44:14;7.88;;;1.83;;
16824;SDS011;8529;48.108;-1.706;2023-08-06T02:46:43;5.28;;;1.60;;
16824;SDS011;8529;48.108;-1.706;2023-08-06T02:49:10;7.88;;;1.73;;
16824;SDS011;8529;48.108;-1.706;2023-08-06T02:51:37;5.10;;;1.70;;
16824;SDS011;8529;48.108;-1.706;2023-08-06T02:54:04;4.25;;;1.60;;
16824;SDS011;8529;48.108;-1.706;2023-08-06T02:56:31;7.53;;;1.60;;
16824;SDS011;8529;48.108;-1.706;2023-08-06T02:58:58;5.75;;;1.88;;
16824;SDS011;8529;48.108;-1.706;2023-08-06T03:01:25;5.90;;;1.95;;
16824;SDS011;8529;48.108;-1.706;2023-08-06T03:03:54;5.97;;;2.10;;
16824;SDS011;8529;48.108;-1.706;2023-08-06T03:06:21;4.43;;;1.48;;
16824;SDS011;8529;48.108;-1.706;2023-08-06T03:08:48;6.15;;;1.77;;
16824;SDS011;8529;48.108;-1.706;2023-08-06T03:11:15;5.20;;;1.40;;
16824;SDS011;8529;48.108;-1.706;2023-08-06T03:13:42;5.30;;;1.92;;
16824;SDS011;8529;48.108;-1.706;2023-08-06T03:16:09;7.95;;;2.03;;
16824;SDS011;8529;48.108;-1.706;2023-08-06T03:18:36;3.80;;;1.23;;
16824;SDS011;8529;48.108;-1.706;2023-08-06T03:21:05;7.50;;;1.70;;
16824;SDS011;8529;48.108;-1.706;2023-08-06T03:23:32;6.97;;;1.80;;
16824;SDS011;8529;48.108;-1.706;2023-08-06T03:26:00;5.43;;;1.50;;
16824;SDS011;8529;48.108;-1.706;2023-08-06T03:28:28;10.27;;;1.63;;
16824;SDS011;8529;48.108;-1.706;2023-08-06T03:30:59;5.43;;;1.73;;
16824;SDS011;8529;48.108;-1.706;2023-08-06T03:33:26;3.03;;;1.30;;
16824;SDS011;8529;48.108;-1.706;2023-08-06T03:35:53;7.15;;;1.92;;
16824;SDS011;8529;48.108;-1.706;2023-08-06T03:38:21;7.00;;;1.77;;
16824;SDS011;8529;48.108;-1.706;2023-08-06T03:40:48;4.88;;;1.73;;
16824;SDS011;8529;48.108;-1.706;2023-08-06T03:43:15;4.47;;;1.52;;
16824;SDS011;8529;48.108;-1.706;2023-08-06T03:45:43;6.20;;;1.58;;
16824;SDS011;8529;48.108;-1.706;2023-08-06T03:48:09;5.78;;;1.58;;
16824;SDS011;8529;48.108;-1.706;2023-08-06T03:50:36;7.47;;;1.48;;
16824;SDS011;8529;48.108;-1.706;2023-08-06T03:53:04;6.10;;;1.40;;
16824;SDS011;8529;48.108;-1.706;2023-08-06T03:55:32;8.65;;;2.15;;
16824;SDS011;8529;48.108;-1.706;2023-08-06T03:57:59;4.15;;;1.60;;
16824;SDS011;8529;48.108;-1.706;2023-08-06T04:00:26;5.97;;;1.92;;
16824;SDS011;8529;48.108;-1.706;2023-08-06T04:02:53;6.22;;;1.60;;
16824;SDS011;8529;48.108;-1.706;2023-08-06T04:05:21;6.55;;;1.80;;
16824;SDS011;8529;48.108;-1.706;2023-08-06T04:07:48;3.88;;;1.50;;
16824;SDS011;8529;48.108;-1.706;2023-08-06T04:10:15;7.70;;;1.75;;
16824;SDS011;8529;48.108;-1.706;2023-08-06T04:12:43;4.75;;;1.27;;
16824;SDS011;8529;48.108;-1.706;2023-08-06T04:15:10;7.75;;;1.83;;
16824;SDS011;8529;48.108;-1.706;2023-08-06T04:17:37;12.80;;;2.20;;
16824;SDS011;8529;48.108;-1.706;2023-08-06T04:20:04;7.28;;;1.92;;
16824;SDS011;8529;48.108;-1.706;2023-08-06T04:22:32;8.43;;;1.90;;
16824;SDS011;8529;48.108;-1.706;2023-08-06T04:24:59;7.43;;;1.70;;
16824;SDS011;8529;48.108;-1.706;2023-08-06T04:27:26;6.72;;;1.63;;
16824;SDS011;8529;48.108;-1.706;2023-08-06T04:29:55;5.10;;;1.48;;
16824;SDS011;8529;48.108;-1.706;2023-08-06T04:32:22;6.95;;;1.80;;
16824;SDS011;8529;48.108;-1.706;2023-08-06T04:34:49;7.45;;;1.77;;
16824;SDS011;8529;48.108;-1.706;2023-08-06T04:37:17;5.15;;;1.55;;
16824;SDS011;8529;48.108;-1.706;2023-08-06T04:39:43;4.78;;;1.90;;
16824;SDS011;8529;48.108;-1.706;2023-08-06T04:42:11;4.10;;;1.67;;
16824;SDS011;8529;48.108;-1.706;2023-08-06T04:44:38;6.13;;;1.83;;
16824;SDS011;8529;48.108;-1.706;2023-08-06T04:47:06;9.00;;;1.77;;
16824;SDS011;8529;48.108;-1.706;2023-08-06T04:49:33;8.52;;;2.42;;
16824;SDS011;8529;48.108;-1.706;2023-08-06T04:52:01;12.32;;;2.55;;
16824;SDS011;8529;48.108;-1.706;2023-08-06T04:54:28;5.78;;;1.75;;
16824;SDS011;8529;48.108;-1.706;2023-08-06T04:56:55;5.85;;;1.48;;
16824;SDS011;8529;48.108;-1.706;2023-08-06T04:59:22;6.80;;;2.00;;
16824;SDS011;8529;48.108;-1.706;2023-08-06T05:01:49;9.48;;;2.20;;
16824;SDS011;8529;48.108;-1.706;2023-08-06T05:04:17;5.72;;;1.45;;
16824;SDS011;8529;48.108;-1.706;2023-08-06T05:06:44;7.43;;;1.63;;
16824;SDS011;8529;48.108;-1.706;2023-08-06T05:09:11;7.32;;;2.30;;
16824;SDS011;8529;48.108;-1.706;2023-08-06T05:11:38;8.02;;;2.03;;
16824;SDS011;8529;48.108;-1.706;2023-08-06T05:14:05;6.63;;;1.60;;
16824;SDS011;8529;48.108;-1.706;2023-08-06T05:16:33;4.20;;;1.60;;
16824;SDS011;8529;48.108;-1.706;2023-08-06T05:19:00;6.63;;;1.65;;
16824;SDS011;8529;48.108;-1.706;2023-08-06T05:21:28;6.68;;;2.00;;
16824;SDS011;8529;48.108;-1.706;2023-08-06T05:23:55;9.38;;;2.20;;
16824;SDS011;8529;48.108;-1.706;2023-08-06T05:26:22;9.98;;;1.90;;
16824;SDS011;8529;48.108;-1.706;2023-08-06T05:28:50;7.03;;;1.92;;
16824;SDS011;8529;48.108;-1.706;2023-08-06T05:31:17;2.97;;;1.48;;
16824;SDS011;8529;48.108;-1.706;2023-08-06T05:33:44;6.78;;;1.50;;
16824;SDS011;8529;48.108;-1.706;2023-08-06T05:36:11;5.75;;;2.20;;
16824;SDS011;8529;48.108;-1.706;2023-08-06T05:38:40;11.85;;;2.10;;
16824;SDS011;8529;48.108;-1.706;2023-08-06T05:41:07;7.10;;;1.63;;
16824;SDS011;8529;48.108;-1.706;2023-08-06T05:43:34;5.95;;;2.00;;
16824;SDS011;8529;48.108;-1.706;2023-08-06T05:46:01;6.28;;;2.05;;
16824;SDS011;8529;48.108;-1.706;2023-08-06T05:48:29;9.65;;;1.75;;
16824;SDS011;8529;48.108;-1.706;2023-08-06T05:50:57;6.93;;;1.67;;
16824;SDS011;8529;48.108;-1.706;2023-08-06T05:53:24;8.32;;;1.83;;
16824;SDS011;8529;48.108;-1.706;2023-08-06T05:55:53;7.60;;;2.55;;
16824;SDS011;8529;48.108;-1.706;2023-08-06T05:58:20;6.47;;;1.60;;
16824;SDS011;8529;48.108;-1.706;2023-08-06T06:00:49;6.20;;;1.50;;
16824;SDS011;8529;48.108;-1.706;2023-08-06T06:03:16;7.03;;;2.55;;
16824;SDS011;8529;48.108;-1.706;2023-08-06T06:05:44;10.55;;;2.50;;
16824;SDS011;8529;48.108;-1.706;2023-08-06T06:08:11;13.68;;;2.28;;
16824;SDS011;8529;48.108;-1.706;2023-08-06T06:10:38;8.57;;;2.08;;
16824;SDS011;8529;48.108;-1.706;2023-08-06T06:13:07;8.25;;;2.25;;
16824;SDS011;8529;48.108;-1.706;2023-08-06T06:15:34;11.13;;;2.60;;
16824;SDS011;8529;48.108;-1.706;2023-08-06T06:18:01;5.15;;;1.90;;
16824;SDS011;8529;48.108;-1.706;2023-08-06T06:20:28;9.75;;;1.90;;
16824;SDS011;8529;48.108;-1.706;2023-08-06T06:22:56;13.10;;;2.10;;
16824;SDS011;8529;48.108;-1.706;2023-08-06T06:25:23;11.05;;;2.15;;
16824;SDS011;8529;48.108;-1.706;2023-08-06T06:27:50;6.32;;;2.42;;
16824;SDS011;8529;48.108;-1.706;2023-08-06T06:30:19;8.52;;;2.00;;
16824;SDS011;8529;48.108;-1.706;2023-08-06T06:32:46;8.35;;;2.75;;
16824;SDS011;8529;48.108;-1.706;2023-08-06T06:35:13;8.57;;;1.92;;
16824;SDS011;8529;48.108;-1.706;2023-08-06T06:37:40;11.23;;;2.40;;
16824;SDS011;8529;48.108;-1.706;2023-08-06T06:40:08;10.02;;;2.67;;
16824;SDS011;8529;48.108;-1.706;2023-08-06T06:42:35;7.85;;;2.15;;
16824;SDS011;8529;48.108;-1.706;2023-08-06T06:45:02;10.10;;;2.42;;
16824;SDS011;8529;48.108;-1.706;2023-08-06T06:47:31;11.77;;;2.38;;
16824;SDS011;8529;48.108;-1.706;2023-08-06T06:49:58;13.63;;;2.33;;
16824;SDS011;8529;48.108;-1.706;2023-08-06T06:52:25;7.90;;;2.15;;
16824;SDS011;8529;48.108;-1.706;2023-08-06T06:54:52;14.00;;;2.85;;
16824;SDS011;8529;48.108;-1.706;2023-08-06T06:57:19;9.38;;;2.42;;
16824;SDS011;8529;48.108;-1.706;2023-08-06T06:59:47;5.85;;;2.40;;
16824;SDS011;8529;48.108;-1.706;2023-08-06T07:02:14;7.55;;;2.13;;
16824;SDS011;8529;48.108;-1.706;2023-08-06T07:04:42;9.82;;;2.40;;
16824;SDS011;8529;48.108;-1.706;2023-08-06T07:07:08;12.43;;;2.20;;
16824;SDS011;8529;48.108;-1.706;2023-08-06T07:09:36;10.27;;;2.45;;
16824;SDS011;8529;48.108;-1.706;2023-08-06T07:12:03;9.07;;;2.55;;
16824;SDS011;8529;48.108;-1.706;2023-08-06T07:14:30;7.82;;;2.30;;
16824;SDS011;8529;48.108;-1.706;2023-08-06T07:16:58;7.80;;;2.30;;
16824;SDS011;8529;48.108;-1.706;2023-08-06T07:19:25;13.45;;;3.47;;
16824;SDS011;8529;48.108;-1.706;2023-08-06T07:21:53;7.28;;;2.50;;
16824;SDS011;8529;48.108;-1.706;2023-08-06T07:24:21;10.43;;;2.38;;
16824;SDS011;8529;48.108;-1.706;2023-08-06T07:26:48;13.20;;;2.78;;
16824;SDS011;8529;48.108;-1.706;2023-08-06T07:29:14;10.90;;;2.75;;
16824;SDS011;8529;48.108;-1.706;2023-08-06T07:31:44;6.45;;;2.20;;
16824;SDS011;8529;48.108;-1.706;2023-08-06T07:34:12;9.40;;;2.30;;
16824;SDS011;8529;48.108;-1.706;2023-08-06T07:36:38;8.15;;;2.80;;
16824;SDS011;8529;48.108;-1.706;2023-08-06T07:39:07;9.68;;;2.47;;
16824;SDS011;8529;48.108;-1.706;2023-08-06T07:41:34;7.68;;;1.95;;
16824;SDS011;8529;48.108;-1.706;2023-08-06T07:44:01;7.75;;;2.15;;
16824;SDS011;8529;48.108;-1.706;2023-08-06T07:46:28;6.47;;;2.38;;
16824;SDS011;8529;48.108;-1.706;2023-08-06T07:48:55;7.72;;;2.35;;
16824;SDS011;8529;48.108;-1.706;2023-08-06T07:51:22;7.05;;;2.30;;
16824;SDS011;8529;48.108;-1.706;2023-08-06T07:53:49;10.68;;;2.08;;
16824;SDS011;8529;48.108;-1.706;2023-08-06T07:56:17;7.22;;;2.58;;
16824;SDS011;8529;48.108;-1.706;2023-08-06T07:58:44;7.65;;;2.40;;
16824;SDS011;8529;48.108;-1.706;2023-08-06T08:01:11;8.63;;;2.55;;
16824;SDS011;8529;48.108;-1.706;2023-08-06T08:03:38;5.68;;;2.10;;
16824;SDS011;8529;48.108;-1.706;2023-08-06T08:06:05;8.52;;;1.80;;
16824;SDS011;8529;48.108;-1.706;2023-08-06T08:08:32;7.15;;;2.10;;
16824;SDS011;8529;48.108;-1.706;2023-08-06T08:11:02;6.50;;;2.47;;
16824;SDS011;8529;48.108;-1.706;2023-08-06T08:13:31;5.50;;;2.47;;
16824;SDS011;8529;48.108;-1.706;2023-08-06T08:15:58;7.35;;;2.20;;
16824;SDS011;8529;48.108;-1.706;2023-08-06T08:18:25;8.27;;;2.53;;
16824;SDS011;8529;48.108;-1.706;2023-08-06T08:20:52;8.57;;;2.08;;
16824;SDS011;8529;48.108;-1.706;2023-08-06T08:23:19;7.53;;;2.15;;
16824;SDS011;8529;48.108;-1.706;2023-08-06T08:25:46;8.98;;;2.00;;
16824;SDS011;8529;48.108;-1.706;2023-08-06T08:28:13;9.02;;;2.28;;
16824;SDS011;8529;48.108;-1.706;2023-08-06T08:30:42;8.15;;;2.20;;
16824;SDS011;8529;48.108;-1.706;2023-08-06T08:33:09;5.53;;;2.10;;
16824;SDS011;8529;48.108;-1.706;2023-08-06T08:35:36;7.72;;;2.22;;
16824;SDS011;8529;48.108;-1.706;2023-08-06T08:38:03;3.75;;;1.45;;
16824;SDS011;8529;48.108;-1.706;2023-08-06T08:40:31;4.47;;;1.67;;
16824;SDS011;8529;48.108;-1.706;2023-08-06T08:42:59;5.55;;;1.65;;
16824;SDS011;8529;48.108;-1.706;2023-08-06T08:45:28;7.20;;;2.20;;
16824;SDS011;8529;48.108;-1.706;2023-08-06T08:47:57;6.15;;;2.05;;
16824;SDS011;8529;48.108;-1.706;2023-08-06T08:50:24;5.53;;;1.90;;
16824;SDS011;8529;48.108;-1.706;2023-08-06T08:52:52;7.05;;;1.83;;
16824;SDS011;8529;48.108;-1.706;2023-08-06T08:55:19;6.18;;;1.83;;
16824;SDS011;8529;48.108;-1.706;2023-08-06T08:57:47;5.22;;;1.70;;
16824;SDS011;8529;48.108;-1.706;2023-08-06T09:00:14;3.45;;;1.83;;
16824;SDS011;8529;48.108;-1.706;2023-08-06T09:02:42;3.63;;;1.60;;
16824;SDS011;8529;48.108;-1.706;2023-08-06T09:05:13;8.13;;;1.48;;
16824;SDS011;8529;48.108;-1.706;2023-08-06T09:07:41;3.38;;;1.42;;
16824;SDS011;8529;48.108;-1.706;2023-08-06T09:10:10;2.67;;;1.50;;
16824;SDS011;8529;48.108;-1.706;2023-08-06T09:12:38;4.90;;;1.90;;
16824;SDS011;8529;48.108;-1.706;2023-08-06T09:15:06;2.75;;;1.35;;
16824;SDS011;8529;48.108;-1.706;2023-08-06T09:17:33;6.80;;;1.50;;
16824;SDS011;8529;48.108;-1.706;2023-08-06T09:20:08;4.25;;;1.50;;
16824;SDS011;8529;48.108;-1.706;2023-08-06T09:22:37;6.93;;;1.92;;
16824;SDS011;8529;48.108;-1.706;2023-08-06T09:25:05;4.53;;;1.48;;
16824;SDS011;8529;48.108;-1.706;2023-08-06T09:27:35;7.78;;;1.70;;
16824;SDS011;8529;48.108;-1.706;2023-08-06T09:30:03;5.97;;;1.75;;
16824;SDS011;8529;48.108;-1.706;2023-08-06T09:32:41;3.60;;;1.38;;
16824;SDS011;8529;48.108;-1.706;2023-08-06T09:35:14;3.60;;;1.10;;
16824;SDS011;8529;48.108;-1.706;2023-08-06T09:37:43;2.50;;;1.13;;
16824;SDS011;8529;48.108;-1.706;2023-08-06T09:40:26;1.58;;;0.95;;
16824;SDS011;8529;48.108;-1.706;2023-08-06T09:42:54;2.65;;;0.93;;
16824;SDS011;8529;48.108;-1.706;2023-08-06T09:45:21;29.98;;;3.45;;
16824;SDS011;8529;48.108;-1.706;2023-08-06T09:47:48;16.25;;;3.15;;
16824;SDS011;8529;48.108;-1.706;2023-08-06T09:50:16;8.95;;;1.73;;
16824;SDS011;8529;48.108;-1.706;2023-08-06T09:52:45;5.90;;;1.50;;
16824;SDS011;8529;48.108;-1.706;2023-08-06T09:55:13;4.82;;;1.55;;
16824;SDS011;8529;48.108;-1.706;2023-08-06T09:57:41;3.25;;;1.33;;
16824;SDS011;8529;48.108;-1.706;2023-08-06T10:00:08;4.90;;;1.27;;
16824;SDS011;8529;48.108;-1.706;2023-08-06T10:02:36;3.17;;;1.10;;
16824;SDS011;8529;48.108;-1.706;2023-08-06T10:05:04;5.30;;;1.25;;
16824;SDS011;8529;48.108;-1.706;2023-08-06T10:07:31;7.65;;;1.30;;
16824;SDS011;8529;48.108;-1.706;2023-08-06T10:10:00;2.65;;;0.73;;
16824;SDS011;8529;48.108;-1.706;2023-08-06T10:12:28;3.58;;;1.20;;
16824;SDS011;8529;48.108;-1.706;2023-08-06T10:14:57;2.45;;;0.98;;
16824;SDS011;8529;48.108;-1.706;2023-08-06T10:17:25;2.20;;;0.80;;
16824;SDS011;8529;48.108;-1.706;2023-08-06T10:19:53;3.30;;;1.10;;
16824;SDS011;8529;48.108;-1.706;2023-08-06T10:22:21;3.10;;;0.82;;
16824;SDS011;8529;48.108;-1.706;2023-08-06T10:24:49;4.28;;;1.00;;
16824;SDS011;8529;48.108;-1.706;2023-08-06T10:27:29;2.58;;;0.98;;
16824;SDS011;8529;48.108;-1.706;2023-08-06T10:29:56;1.92;;;0.80;;
16824;SDS011;8529;48.108;-1.706;2023-08-06T10:32:46;3.08;;;1.25;;
16824;SDS011;8529;48.108;-1.706;2023-08-06T10:35:27;2.15;;;0.80;;
16824;SDS011;8529;48.108;-1.706;2023-08-06T10:37:57;1.73;;;0.75;;
16824;SDS011;8529;48.108;-1.706;2023-08-06T10:40:24;2.15;;;0.88;;
16824;SDS011;8529;48.108;-1.706;2023-08-06T10:42:53;2.83;;;0.73;;
16824;SDS011;8529;48.108;-1.706;2023-08-06T10:45:20;1.90;;;0.90;;
16824;SDS011;8529;48.108;-1.706;2023-08-06T10:47:49;2.60;;;0.95;;
16824;SDS011;8529;48.108;-1.706;2023-08-06T10:50:16;1.58;;;0.65;;
16824;SDS011;8529;48.108;-1.706;2023-08-06T10:52:44;2.78;;;1.13;;
16824;SDS011;8529;48.108;-1.706;2023-08-06T10:55:11;2.63;;;1.10;;
16824;SDS011;8529;48.108;-1.706;2023-08-06T10:57:39;2.83;;;1.23;;
16824;SDS011;8529;48.108;-1.706;2023-08-06T11:00:08;2.15;;;1.08;;
16824;SDS011;8529;48.108;-1.706;2023-08-06T11:02:37;3.50;;;0.85;;
16824;SDS011;8529;48.108;-1.706;2023-08-06T11:05:05;2.53;;;1.30;;
16824;SDS011;8529;48.108;-1.706;2023-08-06T11:07:32;1.52;;;0.93;;
16824;SDS011;8529;48.108;-1.706;2023-08-06T11:10:03;3.17;;;0.90;;
16824;SDS011;8529;48.108;-1.706;2023-08-06T11:12:31;5.88;;;1.20;;
16824;SDS011;8529;48.108;-1.706;2023-08-06T11:14:58;3.22;;;0.90;;
16824;SDS011;8529;48.108;-1.706;2023-08-06T11:17:28;3.28;;;1.10;;
16824;SDS011;8529;48.108;-1.706;2023-08-06T11:19:55;2.63;;;1.00;;
16824;SDS011;8529;48.108;-1.706;2023-08-06T11:22:22;3.47;;;0.82;;
16824;SDS011;8529;48.108;-1.706;2023-08-06T11:24:49;2.15;;;0.95;;
16824;SDS011;8529;48.108;-1.706;2023-08-06T11:27:17;2.78;;;0.88;;
16824;SDS011;8529;48.108;-1.706;2023-08-06T11:29:44;4.28;;;1.10;;
16824;SDS011;8529;48.108;-1.706;2023-08-06T11:32:11;4.38;;;1.30;;
16824;SDS011;8529;48.108;-1.706;2023-08-06T11:34:40;2.47;;;1.20;;
16824;SDS011;8529;48.108;-1.706;2023-08-06T11:37:07;1.20;;;0.85;;
16824;SDS011;8529;48.108;-1.706;2023-08-06T11:39:36;1.50;;;0.70;;
16824;SDS011;8529;48.108;-1.706;2023-08-06T11:42:03;2.65;;;1.10;;
16824;SDS011;8529;48.108;-1.706;2023-08-06T11:44:31;3.55;;;1.02;;
16824;SDS011;8529;48.108;-1.706;2023-08-06T11:46:59;3.38;;;0.80;;
16824;SDS011;8529;48.108;-1.706;2023-08-06T11:49:37;2.33;;;0.90;;
16824;SDS011;8529;48.108;-1.706;2023-08-06T11:52:09;4.78;;;1.35;;
16824;SDS011;8529;48.108;-1.706;2023-08-06T11:54:37;3.50;;;1.10;;
16824;SDS011;8529;48.108;-1.706;2023-08-06T11:57:05;2.13;;;1.00;;
16824;SDS011;8529;48.108;-1.706;2023-08-06T11:59:32;1.35;;;0.73;;
16824;SDS011;8529;48.108;-1.706;2023-08-06T12:02:00;2.13;;;0.82;;
16824;SDS011;8529;48.108;-1.706;2023-08-06T12:04:27;3.58;;;1.02;;
16824;SDS011;8529;48.108;-1.706;2023-08-06T12:06:54;3.53;;;0.80;;
16824;SDS011;8529;48.108;-1.706;2023-08-06T12:09:23;0.65;;;0.47;;
16824;SDS011;8529;48.108;-1.706;2023-08-06T12:11:50;2.28;;;0.95;;
16824;SDS011;8529;48.108;-1.706;2023-08-06T12:14:17;1.80;;;0.80;;
16824;SDS011;8529;48.108;-1.706;2023-08-06T12:16:44;1.58;;;0.80;;
16824;SDS011;8529;48.108;-1.706;2023-08-06T12:19:11;2.45;;;1.08;;
16824;SDS011;8529;48.108;-1.706;2023-08-06T12:21:39;4.20;;;1.27;;
16824;SDS011;8529;48.108;-1.706;2023-08-06T12:24:06;2.95;;;1.10;;
16824;SDS011;8529;48.108;-1.706;2023-08-06T12:26:35;1.35;;;0.55;;
16824;SDS011;8529;48.108;-1.706;2023-08-06T12:29:02;2.35;;;0.70;;
16824;SDS011;8529;48.108;-1.706;2023-08-06T12:31:29;2.15;;;0.60;;
16824;SDS011;8529;48.108;-1.706;2023-08-06T12:33:56;2.88;;;0.60;;
16824;SDS011;8529;48.108;-1.706;2023-08-06T12:36:24;1.42;;;0.70;;
16824;SDS011;8529;48.108;-1.706;2023-08-06T12:38:51;1.30;;;0.70;;
16824;SDS011;8529;48.108;-1.706;2023-08-06T12:41:18;1.80;;;0.73;;
16824;SDS011;8529;48.108;-1.706;2023-08-06T12:43:47;2.33;;;1.20;;
16824;SDS011;8529;48.108;-1.706;2023-08-06T12:46:14;2.08;;;0.70;;
16824;SDS011;8529;48.108;-1.706;2023-08-06T12:48:41;2.95;;;0.70;;
16824;SDS011;8529;48.108;-1.706;2023-08-06T12:51:09;1.35;;;0.70;;
16824;SDS011;8529;48.108;-1.706;2023-08-06T12:53:36;5.43;;;0.77;;
16824;SDS011;8529;48.108;-1.706;2023-08-06T12:56:03;2.22;;;0.90;;
16824;SDS011;8529;48.108;-1.706;2023-08-06T12:58:30;3.30;;;0.85;;
16824;SDS011;8529;48.108;-1.706;2023-08-06T13:00:59;1.42;;;0.70;;
16824;SDS011;8529;48.108;-1.706;2023-08-06T13:03:26;0.93;;;0.60;;
16824;SDS011;8529;48.108;-1.706;2023-08-06T13:05:53;1.23;;;0.80;;
16824;SDS011;8529;48.108;-1.706;2023-08-06T13:08:20;1.83;;;0.60;;
16824;SDS011;8529;48.108;-1.706;2023-08-06T13:10:47;3.70;;;0.95;;
16824;SDS011;8529;48.108;-1.706;2023-08-06T13:13:15;2.45;;;0.70;;
16824;SDS011;8529;48.108;-1.706;2023-08-06T13:15:42;1.42;;;0.88;;
16824;SDS011;8529;48.108;-1.706;2023-08-06T13:18:10;0.80;;;0.60;;
16824;SDS011;8529;48.108;-1.706;2023-08-06T13:20:37;2.47;;;0.80;;
16824;SDS011;8529;48.108;-1.706;2023-08-06T13:23:06;3.58;;;1.00;;
16824;SDS011;8529;48.108;-1.706;2023-08-06T13:25:32;2.13;;;0.80;;
16824;SDS011;8529;48.108;-1.706;2023-08-06T13:28:02;3.65;;;1.02;;
16824;SDS011;8529;48.108;-1.706;2023-08-06T13:30:29;2.85;;;0.77;;
16824;SDS011;8529;48.108;-1.706;2023-08-06T13:32:59;3.03;;;1.05;;
16824;SDS011;8529;48.108;-1.706;2023-08-06T13:35:28;2.30;;;0.93;;
16824;SDS011;8529;48.108;-1.706;2023-08-06T13:37:55;1.83;;;0.77;;
16824;SDS011;8529;48.108;-1.706;2023-08-06T13:40:22;3.28;;;1.17;;
16824;SDS011;8529;48.108;-1.706;2023-08-06T13:42:49;5.53;;;1.25;;
16824;SDS011;8529;48.108;-1.706;2023-08-06T13:45:16;1.75;;;0.70;;
16824;SDS011;8529;48.108;-1.706;2023-08-06T13:47:43;2.13;;;0.90;;
16824;SDS011;8529;48.108;-1.706;2023-08-06T13:50:10;2.00;;;1.17;;
16824;SDS011;8529;48.108;-1.706;2023-08-06T13:52:40;1.92;;;0.80;;
16824;SDS011;8529;48.108;-1.706;2023-08-06T13:55:07;3.55;;;0.90;;
16824;SDS011;8529;48.108;-1.706;2023-08-06T13:57:34;1.42;;;0.80;;
16824;SDS011;8529;48.108;-1.706;2023-08-06T14:00:02;1.90;;;0.90;;
16824;SDS011;8529;48.108;-1.706;2023-08-06T14:02:30;3.60;;;1.08;;
16824;SDS011;8529;48.108;-1.706;2023-08-06T14:04:57;3.13;;;1.05;;
16824;SDS011;8529;48.108;-1.706;2023-08-06T14:07:24;2.60;;;0.80;;
16824;SDS011;8529;48.108;-1.706;2023-08-06T14:09:53;1.83;;;0.77;;
16824;SDS011;8529;48.108;-1.706;2023-08-06T14:12:22;2.25;;;0.90;;
16824;SDS011;8529;48.108;-1.706;2023-08-06T14:14:49;2.55;;;0.80;;
16824;SDS011;8529;48.108;-1.706;2023-08-06T14:17:16;4.38;;;1.35;;
16824;SDS011;8529;48.108;-1.706;2023-08-06T14:19:43;1.98;;;1.20;;
16824;SDS011;8529;48.108;-1.706;2023-08-06T14:22:10;4.95;;;1.33;;
16824;SDS011;8529;48.108;-1.706;2023-08-06T14:24:37;3.08;;;1.40;;
16824;SDS011;8529;48.108;-1.706;2023-08-06T14:27:07;2.92;;;1.10;;
16824;SDS011;8529;48.108;-1.706;2023-08-06T14:29:34;3.13;;;0.95;;
16824;SDS011;8529;48.108;-1.706;2023-08-06T14:32:01;2.55;;;1.20;;
16824;SDS011;8529;48.108;-1.706;2023-08-06T14:34:28;3.75;;;1.40;;
16824;SDS011;8529;48.108;-1.706;2023-08-06T14:36:55;3.60;;;1.15;;
16824;SDS011;8529;48.108;-1.706;2023-08-06T14:39:24;3.08;;;0.80;;
16824;SDS011;8529;48.108;-1.706;2023-08-06T14:41:51;2.28;;;0.98;;
16824;SDS011;8529;48.108;-1.706;2023-08-06T14:44:20;1.67;;;0.70;;
16824;SDS011;8529;48.108;-1.706;2023-08-06T14:46:47;1.20;;;0.75;;
16824;SDS011;8529;48.108;-1.706;2023-08-06T14:49:14;4.15;;;0.80;;